Time;durP1;ratioP1;P1;durP2;ratioP2;P2;SDS_P1;SDS_P2;PMS_P1;PMS_P2;Temp;Humidity;BMP_temperature;BMP_pressure;BME280_temperature;BME280_humidity;BME280_pressure;Samples;Min_cycle;Max_cycle;Signal;HPM_P1;HPM_P2
2022/08/29 00:01:48;;;;;;;10.25;5.00;;;;;;;15.47;100.00;99167.03;5111059;28;20047;-83
2022/08/29 00:04:15;;;;;;;8.05;5.45;;;;;;;15.49;100.00;99162.22;5112390;28;20044;-83
2022/08/29 00:06:42;;;;;;;17.92;5.20;;;;;;;15.45;100.00;99162.88;5112474;28;20051;-83
2022/08/29 00:09:08;;;;;;;7.63;5.22;;;;;;;15.20;100.00;99155.34;5112601;28;20064;-82
2022/08/29 00:11:35;;;;;;;9.18;5.28;;;;;;;15.08;100.00;99152.44;5113199;28;20039;-83
2022/08/29 00:14:02;;;;;;;8.65;4.68;;;;;;;15.15;100.00;99169.69;5112797;28;20032;-83
2022/08/29 00:16:28;;;;;;;7.70;4.90;;;;;;;15.22;100.00;99166.94;5112509;28;20048;-83
2022/08/29 00:18:56;;;;;;;10.50;5.00;;;;;;;15.21;100.00;99168.00;5113447;28;20046;-82
2022/08/29 00:21:24;;;;;;;10.52;5.07;;;;;;;15.18;100.00;99171.16;5112367;28;20086;-83
2022/08/29 00:23:50;;;;;;;9.20;5.65;;;;;;;15.19;100.00;99179.16;5112088;28;20058;-83
2022/08/29 00:26:17;;;;;;;8.75;5.70;;;;;;;15.32;100.00;99171.97;5112781;28;20065;-83
2022/08/29 00:28:43;;;;;;;7.47;5.15;;;;;;;15.15;100.00;99161.47;5113269;28;20044;-83
2022/08/29 00:31:10;;;;;;;8.88;5.35;;;;;;;15.26;100.00;99170.91;5113195;28;20050;-82
2022/08/29 00:33:37;;;;;;;8.75;5.15;;;;;;;15.10;100.00;99160.41;5112204;28;20052;-83
2022/08/29 00:36:05;;;;;;;9.20;5.15;;;;;;;14.99;100.00;99167.41;5111497;28;20054;-83
2022/08/29 00:38:31;;;;;;;8.57;4.97;;;;;;;14.92;100.00;99178.38;5112747;28;20052;-83
2022/08/29 00:40:59;;;;;;;8.23;5.30;;;;;;;14.95;100.00;99168.88;5112796;28;20059;-82
2022/08/29 00:43:29;;;;;;;5.93;4.45;;;;;;;14.97;100.00;99183.22;5112273;27;20047;-83
2022/08/29 00:46:08;;;;;;;8.65;5.50;;;;;;;14.90;100.00;99187.84;5112698;28;20054;-83
2022/08/29 00:48:36;;;;;;;8.27;5.43;;;;;;;14.93;100.00;99176.47;5113001;28;20067;-83
2022/08/29 00:51:07;;;;;;;8.88;5.47;;;;;;;14.92;100.00;99178.38;5111098;28;20047;-82
2022/08/29 00:53:39;;;;;;;8.85;5.55;;;;;;;14.95;100.00;99182.56;5112087;28;20046;-83
2022/08/29 00:56:08;;;;;;;9.80;4.88;;;;;;;14.82;100.00;99189.75;5104273;28;20040;-82
2022/08/29 00:58:40;;;;;;;7.57;5.20;;;;;;;14.82;100.00;99178.78;5112717;28;20044;-83
2022/08/29 01:01:06;;;;;;;8.98;4.85;;;;;;;14.70;100.00;99180.50;5112714;28;20052;-83
2022/08/29 01:03:35;;;;;;;10.57;5.85;;;;;;;14.63;100.00;99176.91;5111847;28;20047;-83
2022/08/29 01:06:04;;;;;;;7.75;4.97;;;;;;;14.48;100.00;99166.16;5108840;27;20430;-83
2022/08/29 01:08:32;;;;;;;9.35;4.85;;;;;;;14.56;100.00;99184.25;5108680;28;20059;-83
2022/08/29 01:13:47;;;;;;;7.88;5.18;;;;;;;14.67;100.00;99191.88;5111256;28;20150;-83
2022/08/29 01:16:15;;;;;;;8.15;5.43;;;;;;;14.52;100.00;99178.38;5111034;28;20048;-83
2022/08/29 01:18:46;;;;;;;8.20;4.90;;;;;;;14.49;100.00;99182.34;5111910;28;20514;-83
2022/08/29 01:21:21;;;;;;;7.63;5.13;;;;;;;14.46;100.00;99192.88;5112327;28;20043;-83
2022/08/29 01:23:58;;;;;;;5.45;4.80;;;;;;;14.56;100.00;99193.31;5111302;28;20043;-83
2022/08/29 01:26:28;;;;;;;12.35;5.25;;;;;;;14.46;100.00;99195.63;5105130;28;20054;-83
2022/08/29 01:28:56;;;;;;;12.15;5.13;;;;;;;14.48;100.00;99193.50;5109825;28;20066;-83
2022/08/29 01:31:25;;;;;;;7.22;4.85;;;;;;;14.48;100.00;99204.44;5111694;28;20050;-83
2022/08/29 01:33:55;;;;;;;7.82;5.03;;;;;;;14.46;100.00;99192.88;5111168;28;20058;-83
2022/08/29 01:36:24;;;;;;;10.18;4.22;;;;;;;14.52;100.00;99194.78;5108373;28;20074;-83
2022/08/29 01:38:51;;;;;;;9.43;5.25;;;;;;;14.31;100.00;99182.13;5111921;28;20380;-83
2022/08/29 01:41:20;;;;;;;8.88;4.00;;;;;;;14.50;100.00;99203.19;5111467;28;20071;-83
2022/08/29 01:43:51;;;;;;;9.90;4.22;;;;;;;14.44;100.00;99195.81;5109005;28;20495;-83
2022/08/29 01:46:21;;;;;;;7.10;4.53;;;;;;;14.43;100.00;99194.13;5111655;28;20536;-83
2022/08/29 01:48:47;;;;;;;;;;;;;;;14.36;100.00;99200.66;5112497;28;20051;-82
2022/08/29 01:51:15;;;;;;;8.40;4.15;;;;;;;14.17;100.00;99186.75;5111358;28;19923;-82
2022/08/29 01:53:42;;;;;;;7.20;4.22;;;;;;;14.11;100.00;99193.06;5110790;28;20047;-83
2022/08/29 01:56:11;;;;;;;5.80;4.10;;;;;;;14.10;100.00;99186.72;5110248;28;20494;-83
2022/08/29 01:58:38;;;;;;;8.07;4.45;;;;;;;14.15;100.00;99200.63;5111226;28;20502;-83
2022/08/29 02:01:07;;;;;;;8.98;4.43;;;;;;;13.98;100.00;99186.53;5111115;28;20078;-83
2022/08/29 02:03:34;;;;;;;8.70;4.32;;;;;;;13.96;100.00;99193.22;5110972;28;20051;-83
2022/08/29 02:06:00;;;;;;;7.93;4.95;;;;;;;13.99;100.00;99201.00;5109706;28;20142;-83
2022/08/29 02:08:30;;;;;;;5.57;3.97;;;;;;;13.99;100.00;99201.00;5102712;28;20035;-83
2022/08/29 02:10:58;;;;;;;5.72;4.68;;;;;;;13.96;100.00;99199.53;5110126;28;20057;-83
2022/08/29 02:13:25;;;;;;;6.05;4.00;;;;;;;13.99;100.00;99198.28;5109671;28;20426;-82
2022/08/29 02:15:52;;;;;;;5.97;4.28;;;;;;;14.03;100.00;99191.34;5111188;28;20535;-82
2022/08/29 02:18:20;;;;;;;7.22;4.20;;;;;;;14.15;100.00;99199.78;5110706;28;20065;-83
2022/08/29 02:20:47;;;;;;;7.63;4.68;;;;;;;14.09;100.00;99200.59;5111514;28;20040;-83
2022/08/29 02:23:14;;;;;;;7.97;4.22;;;;;;;13.97;100.00;99197.63;5109974;28;20051;-83
2022/08/29 02:25:46;;;;;;;7.15;4.38;;;;;;;14.01;100.00;99207.09;5109403;28;20043;-82
2022/08/29 02:28:15;;;;;;;6.72;5.07;;;;;;;13.83;100.00;99204.13;5111072;28;20130;-83
2022/08/29 02:30:44;;;;;;;9.18;4.65;;;;;;;13.87;100.00;99210.88;5103274;28;20035;-82
2022/08/29 02:33:12;;;;;;;8.50;4.95;;;;;;;13.80;100.00;99214.41;5109951;28;20040;-83
2022/08/29 02:35:41;;;;;;;12.00;4.53;;;;;;;13.92;100.00;99208.34;5110874;28;20112;-83
2022/08/29 02:38:09;;;;;;;12.32;4.75;;;;;;;13.78;100.00;99199.28;5110091;28;20044;-82
2022/08/29 02:40:35;;;;;;;8.00;5.15;;;;;;;13.70;100.00;99194.84;5110224;28;20060;-82
2022/08/29 02:43:02;;;;;;;7.28;4.70;;;;;;;13.63;100.00;99202.16;5110320;28;20043;-82
2022/08/29 02:45:30;;;;;;;10.57;5.22;;;;;;;13.67;100.00;99195.25;5110339;28;20051;-83
2022/08/29 02:47:57;;;;;;;7.35;4.53;;;;;;;13.62;100.00;99189.53;5110612;28;20040;-82
2022/08/29 02:50:24;;;;;;;7.72;4.85;;;;;;;13.63;100.00;99186.59;5110935;28;20068;-83
2022/08/29 02:52:53;;;;;;;10.18;5.18;;;;;;;13.73;100.00;99199.88;5108579;28;20055;-82
2022/08/29 02:55:21;;;;;;;6.50;4.57;;;;;;;13.80;100.00;99208.09;5110381;28;20048;-83
2022/08/29 02:57:47;;;;;;;6.22;4.57;;;;;;;13.83;100.00;99204.13;5107586;28;20043;-83
2022/08/29 03:00:17;;;;;;;8.27;4.68;;;;;;;13.57;100.00;99181.13;5110462;28;20039;-83
2022/08/29 03:02:46;;;;;;;9.93;4.80;;;;;;;13.54;100.00;99201.47;5109798;28;20043;-83
2022/08/29 03:05:13;;;;;;;6.75;3.97;;;;;;;13.62;100.00;99193.13;5107872;28;20048;-83
2022/08/29 03:07:39;;;;;;;9.30;4.80;;;;;;;13.61;100.00;99201.53;5110442;28;20058;-82
2022/08/29 03:10:08;;;;;;;7.97;4.18;;;;;;;13.57;100.00;99197.50;5108529;28;20044;-82
2022/08/29 03:12:35;;;;;;;8.50;4.90;;;;;;;13.53;100.00;99185.28;5108888;28;20035;-82
2022/08/29 03:15:04;;;;;;;6.65;4.30;;;;;;;13.50;100.00;99175.63;5110368;28;20100;-83
2022/08/29 03:17:30;;;;;;;9.18;4.18;;;;;;;13.51;100.00;99190.13;5110175;28;20294;-83
2022/08/29 03:19:58;;;;;;;8.65;4.50;;;;;;;13.44;100.00;99196.41;5110497;28;20055;-83
2022/08/29 03:22:25;;;;;;;5.45;4.45;;;;;;;13.40;100.00;99186.09;5101302;28;20053;-82
2022/08/29 03:24:53;;;;;;;5.85;3.92;;;;;;;13.29;100.00;99190.19;5110009;28;20051;-83
2022/08/29 03:27:21;;;;;;;8.80;4.57;;;;;;;13.18;100.00;99186.13;5108837;28;20036;-82
2022/08/29 03:29:48;;;;;;;7.93;4.45;;;;;;;13.17;100.00;99189.06;5110485;28;20048;-83
2022/08/29 03:32:15;;;;;;;8.35;4.70;;;;;;;13.14;100.00;99175.84;5109711;28;20054;-82
2022/08/29 03:34:42;;;;;;;7.90;4.47;;;;;;;13.03;100.00;99175.34;5110120;28;20079;-82
2022/08/29 03:37:08;;;;;;;8.20;4.53;;;;;;;13.08;100.00;99180.19;5113314;28;20051;-82
2022/08/29 03:39:36;;;;;;;7.32;4.47;;;;;;;13.24;100.00;99193.53;5112555;28;20047;-82
2022/08/29 03:42:03;;;;;;;8.88;4.80;;;;;;;13.20;100.00;99173.16;5113727;28;20491;-82
2022/08/29 03:44:34;;;;;;;6.45;4.05;;;;;;;13.23;100.00;99197.31;5113549;28;20040;-82
2022/08/29 03:47:01;;;;;;;8.07;4.55;;;;;;;13.10;100.00;99195.34;5113721;28;20040;-82
2022/08/29 03:49:27;;;;;;;5.38;4.30;;;;;;;13.03;100.00;99194.44;5113530;28;20047;-82
2022/08/29 03:51:54;;;;;;;9.52;4.88;;;;;;;12.93;100.00;99183.03;5105590;28;20051;-83
2022/08/29 03:54:21;;;;;;;9.48;4.55;;;;;;;13.04;100.00;99200.78;5112057;28;20050;-83
2022/08/29 03:56:48;;;;;;;5.95;4.22;;;;;;;12.93;100.00;99199.41;5113638;28;20052;-83
2022/08/29 03:59:15;;;;;;;8.77;4.30;;;;;;;12.88;100.00;99180.09;5113541;28;20051;-83
2022/08/29 04:01:43;;;;;;;6.30;3.80;;;;;;;12.78;100.00;99188.63;5113694;28;20056;-83
2022/08/29 04:05:05;;;;;;;7.22;4.30;;;;;;;13.01;100.00;99207.47;5113037;28;20055;-82
2022/08/29 04:06:59;;;;;;;6.75;4.35;;;;;;;12.99;100.00;99201.38;5112253;27;20437;-82
2022/08/29 04:09:26;;;;;;;6.45;4.30;;;;;;;12.92;100.00;99197.75;5113479;27;20043;-82
2022/08/29 04:11:52;;;;;;;5.75;4.13;;;;;;;13.02;100.00;99216.47;5113297;28;20487;-82
2022/08/29 04:14:19;;;;;;;9.23;4.18;;;;;;;12.75;100.00;99198.03;5112838;28;20047;-82
2022/08/29 04:16:49;;;;;;;8.18;3.70;;;;;;;12.83;100.00;99232.53;5113448;28;20071;-82
2022/08/29 04:19:15;;;;;;;5.80;3.55;;;;;;;12.82;100.00;99203.53;5113366;28;20055;-82
2022/08/29 04:21:42;;;;;;;9.85;4.25;;;;;;;12.86;100.00;99214.91;5111429;28;20059;-82
2022/08/29 04:24:09;;;;;;;6.82;4.30;;;;;;;12.81;100.00;99211.91;5112189;28;20047;-82
2022/08/29 04:26:35;;;;;;;6.35;3.92;;;;;;;12.92;100.00;99214.13;5113035;28;20039;-82
2022/08/29 04:29:02;;;;;;;11.23;4.35;;;;;;;12.91;100.00;99215.97;5113161;28;20605;-82
2022/08/29 04:31:28;;;;;;;8.05;4.32;;;;;;;12.88;100.00;99223.72;5112433;28;20742;-82
2022/08/29 04:33:57;;;;;;;8.18;4.22;;;;;;;12.72;100.00;99225.72;5111879;28;20047;-82
2022/08/29 04:36:24;;;;;;;11.20;4.35;;;;;;;12.86;100.00;99226.66;5112814;28;20043;-82
2022/08/29 04:38:50;;;;;;;9.55;3.80;;;;;;;12.64;100.00;99219.56;5113105;28;20048;-82
2022/08/29 04:41:18;;;;;;;5.82;4.35;;;;;;;12.66;100.00;99214.75;5112845;28;20051;-82
2022/08/29 04:43:46;;;;;;;6.60;4.22;;;;;;;12.63;100.00;99220.59;5112462;28;20437;-82
2022/08/29 04:46:14;;;;;;;7.35;4.03;;;;;;;12.74;100.00;99233.72;5113134;28;20050;-82
2022/08/29 04:48:40;;;;;;;8.25;4.35;;;;;;;12.68;100.00;99218.97;5110493;28;20063;-82
2022/08/29 04:51:08;;;;;;;5.95;4.28;;;;;;;12.71;100.00;99226.75;5112708;28;20088;-82
2022/08/29 04:53:35;;;;;;;10.50;4.28;;;;;;;12.66;100.00;99215.59;5111776;28;20048;-82
2022/08/29 04:56:03;;;;;;;11.82;5.95;;;;;;;12.55;100.00;99219.69;5112689;28;20040;-82
2022/08/29 04:58:30;;;;;;;7.38;4.05;;;;;;;12.62;100.00;99229.84;5112611;28;20795;-82
2022/08/29 05:00:57;;;;;;;8.95;4.25;;;;;;;12.68;100.00;99223.59;5111516;28;20044;-82
2022/08/29 05:03:23;;;;;;;7.63;4.28;;;;;;;12.68;100.00;99229.88;5111533;28;20048;-82
2022/08/29 05:05:55;;;;;;;12.30;5.68;;;;;;;12.73;100.00;99232.00;5111005;28;20054;-82
2022/08/29 05:08:24;;;;;;;6.93;4.28;;;;;;;12.95;100.00;99226.50;5112456;28;20063;-82
2022/08/29 05:10:51;;;;;;;6.57;3.90;;;;;;;12.92;100.00;99222.31;5110983;28;20079;-82
2022/08/29 05:13:17;;;;;;;6.95;4.18;;;;;;;12.88;100.00;99215.56;5111515;28;20050;-82
2022/08/29 05:15:44;;;;;;;5.32;3.53;;;;;;;13.00;100.00;99241.25;5112239;28;20509;-82
2022/08/29 05:18:12;;;;;;;7.20;3.95;;;;;;;12.88;100.00;99237.38;5112029;28;20067;-83
2022/08/29 05:20:39;;;;;;;4.57;3.40;;;;;;;12.95;100.00;99251.91;5111987;28;20066;-82
2022/08/29 05:23:06;;;;;;;7.85;3.50;;;;;;;12.87;100.00;99231.09;5110329;28;20036;-82
2022/08/29 05:25:34;;;;;;;6.18;3.97;;;;;;;13.07;100.00;99244.03;5110204;28;20138;-82
2022/08/29 05:28:01;;;;;;;7.05;4.60;;;;;;;13.20;100.00;99255.03;5111310;28;20043;-82
2022/08/29 05:30:28;;;;;;;9.15;4.13;;;;;;;13.19;100.00;99238.88;5111479;28;20047;-83
2022/08/29 05:32:54;;;;;;;10.15;4.18;;;;;;;13.35;100.00;99246.75;5111104;28;20418;-82
2022/08/29 05:35:21;;;;;;;7.95;4.10;;;;;;;13.32;100.00;99249.84;5111896;27;20403;-82
2022/08/29 05:37:48;;;;;;;6.28;3.67;;;;;;;13.40;100.00;99249.72;5110917;28;20048;-82
2022/08/29 05:40:14;;;;;;;7.38;4.45;;;;;;;13.43;100.00;99238.41;5111955;27;20054;-82
2022/08/29 05:42:43;;;;;;;6.05;4.10;;;;;;;13.64;100.00;99255.75;5111096;28;20559;-82
2022/08/29 05:45:10;;;;;;;8.95;4.80;;;;;;;13.76;100.00;99261.44;5111107;28;20482;-82
2022/08/29 05:47:37;;;;;;;7.63;4.50;;;;;;;13.84;100.00;99242.16;5110994;28;20047;-82
2022/08/29 05:50:06;;;;;;;9.60;4.45;;;;;;;13.95;100.00;99257.13;5110301;28;20039;-82
2022/08/29 05:52:35;;;;;;;12.05;4.70;;;;;;;13.93;100.00;99234.63;5110435;28;20047;-82
2022/08/29 05:55:02;;;;;;;5.70;4.15;;;;;;;14.29;100.00;99258.91;5111637;28;20139;-82
2022/08/29 05:57:28;;;;;;;8.18;4.75;;;;;;;14.67;100.00;99255.63;5111551;28;20047;-82
2022/08/29 05:59:56;;;;;;;9.45;4.80;;;;;;;15.13;100.00;99247.63;5111101;28;20126;-82
2022/08/29 06:02:23;;;;;;;12.15;4.72;;;;;;;15.66;100.00;99257.63;5110435;27;20069;-83
2022/08/29 06:04:50;;;;;;;13.93;5.75;;;;;;;16.03;100.00;99244.22;5109040;28;20059;-82
2022/08/29 06:07:17;;;;;;;22.45;6.72;;;;;;;16.45;95.42;99245.47;5110975;28;20043;-82
2022/08/29 06:09:45;;;;;;;13.25;6.00;;;;;;;16.86;91.23;99267.09;5109206;27;20048;-82
2022/08/29 06:12:14;;;;;;;10.82;5.22;;;;;;;17.23;87.77;99257.09;5104341;28;20469;-82
2022/08/29 06:14:41;;;;;;;17.52;5.05;;;;;;;17.61;86.12;99271.72;5111059;28;20054;-82
2022/08/29 06:17:10;;;;;;;7.60;4.93;;;;;;;17.93;84.47;99285.34;5111157;28;20051;-82
2022/08/29 06:19:38;;;;;;;10.77;4.70;;;;;;;17.87;83.51;99273.34;5111211;27;20121;-82
2022/08/29 06:22:06;;;;;;;20.08;5.40;;;;;;;17.97;82.41;99287.38;5110123;28;20399;-82
2022/08/29 06:24:34;;;;;;;8.65;4.03;;;;;;;18.17;80.68;99283.53;5111236;28;20047;-82
2022/08/29 06:27:01;;;;;;;8.15;4.47;;;;;;;18.21;79.07;99280.09;5111814;28;20047;-82
2022/08/29 06:29:29;;;;;;;9.57;4.75;;;;;;;18.42;79.67;99290.84;5111329;28;20499;-82
2022/08/29 06:31:57;;;;;;;7.53;4.55;;;;;;;18.45;79.10;99293.13;5110965;28;20050;-82
2022/08/29 06:34:25;;;;;;;11.60;4.32;;;;;;;18.64;77.30;99285.66;5110553;28;20126;-82
2022/08/29 06:36:52;;;;;;;8.77;4.50;;;;;;;18.79;76.14;99308.09;5110191;28;20047;-82
2022/08/29 06:39:19;;;;;;;9.32;3.97;;;;;;;18.84;76.02;99283.44;5110361;28;20055;-82
2022/08/29 06:41:46;;;;;;;11.57;4.47;;;;;;;18.90;73.29;99292.72;5111010;28;20043;-82
2022/08/29 06:44:12;;;;;;;13.40;4.45;;;;;;;19.27;72.57;99284.25;5110434;28;20230;-82
2022/08/29 06:46:42;;;;;;;6.43;3.45;;;;;;;19.48;72.18;99287.47;5111091;28;20058;-82
2022/08/29 06:49:11;;;;;;;10.25;3.72;;;;;;;19.67;71.48;99288.19;5108857;28;20050;-82
2022/08/29 06:51:42;;;;;;;7.22;3.80;;;;;;;19.89;70.52;99299.47;5110725;28;20051;-82
2022/08/29 06:54:10;;;;;;;12.43;4.65;;;;;;;19.93;69.45;99292.38;5109856;28;20062;-82
2022/08/29 06:56:37;;;;;;;8.95;3.25;;;;;;;20.05;69.48;99298.69;5103099;28;20431;-81
2022/08/29 06:59:04;;;;;;;8.10;3.47;;;;;;;20.13;69.00;99303.84;5110899;28;20051;-82
2022/08/29 07:01:31;;;;;;;9.07;3.47;;;;;;;20.02;67.11;99312.97;5110144;28;20047;-81
2022/08/29 07:03:58;;;;;;;10.75;3.85;;;;;;;19.85;66.50;99301.84;5107524;28;20066;-82
2022/08/29 07:06:26;;;;;;;12.25;3.92;;;;;;;20.07;66.57;99296.53;5109447;28;20051;-82
2022/08/29 07:08:54;;;;;;;6.93;3.53;;;;;;;20.00;68.90;99309.63;5110755;28;20105;-82
2022/08/29 07:11:20;;;;;;;8.70;3.78;;;;;;;20.25;67.47;99297.44;5112316;28;20118;-83
2022/08/29 07:13:47;;;;;;;11.23;3.50;;;;;;;20.22;66.11;99287.75;5114286;28;20051;-83
2022/08/29 07:16:17;;;;;;;10.00;4.32;;;;;;;20.14;66.30;99282.59;5113406;28;20039;-84
2022/08/29 07:18:44;;;;;;;7.15;3.85;;;;;;;20.04;66.35;99293.41;5108732;28;20044;-84
2022/08/29 07:21:14;;;;;;;8.80;3.70;;;;;;;20.01;66.41;99280.97;5114726;28;20050;-83
2022/08/29 07:23:41;;;;;;;14.70;3.92;;;;;;;19.73;68.11;99304.59;5113426;28;20052;-83
2022/08/29 07:26:14;;;;;;;8.52;3.60;;;;;;;19.71;68.58;99301.25;5114549;28;20039;-83
2022/08/29 07:28:42;;;;;;;11.40;3.55;;;;;;;20.13;68.11;99312.13;5113288;28;20044;-83
2022/08/29 07:31:09;;;;;;;10.50;3.88;;;;;;;19.86;67.90;99311.81;5113966;28;20047;-83
2022/08/29 07:33:36;;;;;;;9.32;3.83;;;;;;;20.02;68.91;99303.88;5113370;28;20509;-84
2022/08/29 07:36:04;;;;;;;9.63;3.95;;;;;;;20.11;68.00;99308.78;5114970;28;20042;-84
2022/08/29 07:38:31;;;;;;;8.20;3.65;;;;;;;20.14;68.17;99311.03;5114538;28;20074;-83
2022/08/29 07:40:59;;;;;;;9.90;3.55;;;;;;;20.28;67.63;99314.34;5110348;28;20267;-83
2022/08/29 07:43:27;;;;;;;10.02;3.85;;;;;;;20.17;67.55;99317.97;5113781;28;20048;-84
2022/08/29 07:45:54;;;;;;;11.18;4.15;;;;;;;20.33;67.65;99308.09;5114027;28;20058;-83
2022/08/29 07:48:23;;;;;;;8.57;3.90;;;;;;;20.38;66.44;99296.31;5114300;28;20497;-84
2022/08/29 07:50:52;;;;;;;10.52;3.55;;;;;;;20.47;66.35;99312.25;5114088;28;20126;-84
2022/08/29 07:53:19;;;;;;;8.90;4.10;;;;;;;20.06;67.69;99313.34;5112545;28;20044;-84
2022/08/29 07:55:46;;;;;;;6.35;3.28;;;;;;;20.19;67.63;99313.06;5113889;28;20047;-84
2022/08/29 07:58:12;;;;;;;7.55;3.58;;;;;;;19.82;68.18;99296.00;5113101;28;20492;-83
2022/08/29 08:00:40;;;;;;;8.13;3.70;;;;;;;20.24;67.75;99298.53;5114084;28;20286;-84
2022/08/29 08:03:07;;;;;;;7.18;3.70;;;;;;;20.51;66.23;99304.31;5105126;28;20056;-84
2022/08/29 08:05:34;;;;;;;8.38;3.33;;;;;;;20.41;66.65;99312.38;5113170;28;20044;-83
2022/08/29 08:08:00;;;;;;;12.10;4.28;;;;;;;20.46;66.64;99299.53;5113737;28;20454;-83
2022/08/29 08:10:27;;;;;;;9.32;3.53;;;;;;;20.81;66.86;99315.13;5113905;28;20055;-84
2022/08/29 08:12:54;;;;;;;12.02;3.53;;;;;;;20.83;64.66;99303.81;5112437;28;20067;-83
2022/08/29 08:15:21;;;;;;;8.93;2.97;;;;;;;20.86;64.64;99306.91;5113520;28;20088;-84
2022/08/29 08:17:49;;;;;;;11.13;3.45;;;;;;;20.71;65.60;99297.53;5113787;28;20132;-83
2022/08/29 08:20:16;;;;;;;16.10;4.30;;;;;;;20.71;65.06;99295.59;5113532;28;20043;-83
2022/08/29 08:22:42;;;;;;;8.95;3.13;;;;;;;20.82;65.50;99303.00;5111642;28;20055;-83
2022/08/29 08:25:09;;;;;;;8.25;3.35;;;;;;;20.90;62.92;99310.03;5111606;28;20059;-83
2022/08/29 08:27:37;;;;;;;9.85;3.67;;;;;;;20.97;61.97;99305.19;5113222;28;20051;-83
2022/08/29 08:30:04;;;;;;;6.80;3.45;;;;;;;21.02;63.53;99313.56;5113576;28;20054;-83
2022/08/29 08:32:31;;;;;;;8.05;3.35;;;;;;;20.96;63.71;99305.44;5112549;28;20537;-83
2022/08/29 08:35:00;;;;;;;8.32;3.78;;;;;;;21.04;63.84;99313.31;5112895;28;20130;-84
2022/08/29 08:37:27;;;;;;;7.23;3.83;;;;;;;20.95;63.05;99298.22;5109370;28;20051;-85
2022/08/29 08:39:56;;;;;;;6.78;3.03;;;;;;;21.07;63.76;99300.91;5112824;28;20046;-85
2022/08/29 08:42:35;;;;;;;9.43;3.60;;;;;;;20.99;63.35;99307.69;5112165;28;20055;-85
2022/08/29 08:45:07;;;;;;;10.93;4.13;;;;;;;21.01;64.15;99306.34;5113545;28;20051;-85
2022/08/29 08:47:39;;;;;;;7.50;3.60;;;;;;;21.24;63.75;99317.50;5113048;28;20052;-84
2022/08/29 08:50:15;;;;;;;8.52;4.03;;;;;;;21.28;63.11;99313.16;5113265;28;20092;-84
2022/08/29 08:52:45;;;;;;;11.52;4.75;;;;;;;21.38;63.30;99310.56;5105044;28;20052;-84
2022/08/29 08:55:22;;;;;;;10.25;4.43;;;;;;;21.58;62.89;99307.28;5112415;28;20135;-84
2022/08/29 08:57:58;;;;;;;10.40;3.60;;;;;;;21.61;62.83;99312.31;5113130;28;20158;-83
2022/08/29 09:00:28;;;;;;;11.68;3.78;;;;;;;21.84;63.15;99299.34;5112916;28;20096;-83
2022/08/29 09:03:05;;;;;;;8.40;4.35;;;;;;;21.73;61.99;99301.13;5112622;28;20507;-84
2022/08/29 09:05:45;;;;;;;7.30;3.58;;;;;;;21.92;61.99;99318.28;5112329;28;20051;-85
2022/08/29 09:08:26;;;;;;;9.25;3.75;;;;;;;22.10;61.14;99314.38;5111078;28;20047;-84
2022/08/29 09:14:07;;;;;;;6.20;3.38;;;;;;;22.11;60.15;99313.25;5106381;28;20046;-85
2022/08/29 09:16:39;;;;;;;6.32;3.63;;;;;;;22.35;60.79;99315.81;5112437;28;20044;-85
2022/08/29 09:19:10;;;;;;;6.80;3.40;;;;;;;22.22;60.37;99297.59;5112638;28;20044;-85
2022/08/29 09:21:45;;;;;;;10.38;4.00;;;;;;;22.60;60.46;99309.72;5109117;28;20047;-85
2022/08/29 09:24:20;;;;;;;5.55;3.35;;;;;;;22.63;60.36;99300.88;5109474;28;20050;-84
2022/08/29 09:26:48;;;;;;;5.78;3.38;;;;;;;22.60;60.35;99293.09;5112328;28;20051;-84
2022/08/29 09:29:19;;;;;;;6.60;3.35;;;;;;;22.79;59.80;99313.81;5112559;28;20209;-84
2022/08/29 09:32:02;;;;;;;8.45;4.03;;;;;;;22.73;59.63;99298.22;5111954;28;20075;-84
2022/08/29 09:34:35;;;;;;;6.57;3.80;;;;;;;22.85;58.55;99298.03;5112216;28;20558;-83
2022/08/29 09:37:04;;;;;;;9.80;3.72;;;;;;;22.67;58.09;99293.69;5103709;28;20105;-84
2022/08/29 09:39:32;;;;;;;6.70;3.72;;;;;;;22.85;58.62;99306.34;5111023;28;20048;-85
2022/08/29 09:42:13;;;;;;;7.82;4.07;;;;;;;23.00;58.31;99293.75;5112128;28;20079;-84
2022/08/29 09:44:42;;;;;;;6.57;3.67;;;;;;;23.20;57.10;99298.66;5112067;28;20044;-84
2022/08/29 09:47:10;;;;;;;6.57;3.38;;;;;;;23.23;57.48;99292.56;5111828;28;20461;-84
2022/08/29 09:49:38;;;;;;;8.82;3.67;;;;;;;23.36;56.46;99299.63;5111837;28;20098;-84
2022/08/29 09:52:13;;;;;;;8.65;3.78;;;;;;;23.22;56.72;99282.59;5100301;28;20039;-84
2022/08/29 09:54:40;;;;;;;5.20;3.42;;;;;;;23.26;56.21;99298.44;5109459;28;20118;-85
2022/08/29 09:57:12;;;;;;;8.68;3.88;;;;;;;23.37;56.72;99299.34;5103756;28;20427;-84
2022/08/29 09:59:42;;;;;;;8.75;3.47;;;;;;;23.60;55.98;99283.41;5110965;28;20510;-84
2022/08/29 10:02:24;;;;;;;10.98;3.60;;;;;;;23.55;55.01;99292.53;5105350;28;20666;-84
2022/08/29 10:04:53;;;;;;;8.57;3.35;;;;;;;23.53;55.21;99294.75;5111482;28;20435;-84
2022/08/29 10:07:25;;;;;;;8.85;3.60;;;;;;;23.66;54.41;99297.03;5111265;28;20048;-84
2022/08/29 10:09:59;;;;;;;7.43;3.58;;;;;;;23.75;55.31;99285.44;5111421;28;20472;-83
2022/08/29 10:12:33;;;;;;;8.23;3.85;;;;;;;23.78;54.36;99296.00;5109694;28;20657;-84
2022/08/29 10:15:04;;;;;;;6.13;3.33;;;;;;;23.75;54.20;99288.22;5109287;28;20044;-84
2022/08/29 10:20:27;;;;;;;6.97;3.35;;;;;;;23.80;53.79;99286.31;5103674;28;20043;-83
2022/08/29 10:23:02;;;;;;;6.18;3.83;;;;;;;23.97;53.40;99300.03;5110700;28;20044;-83
2022/08/29 10:25:35;;;;;;;4.88;2.80;;;;;;;24.03;53.59;99298.94;5102076;28;20134;-83
2022/08/29 10:28:12;;;;;;;10.35;3.58;;;;;;;24.06;53.23;99283.69;5109391;28;20135;-83
2022/08/29 10:30:47;;;;;;;6.38;3.17;;;;;;;24.07;52.26;99285.34;5108879;28;20065;-83
2022/08/29 10:33:27;;;;;;;9.00;3.67;;;;;;;24.36;53.63;99296.84;5109931;28;20104;-84
2022/08/29 10:35:58;;;;;;;6.27;3.47;;;;;;;24.46;52.44;99289.66;5111284;28;20092;-83
2022/08/29 10:38:42;;;;;;;11.93;3.17;;;;;;;24.45;51.28;99277.72;5109739;28;20044;-83
2022/08/29 10:41:23;;;;;;;6.80;3.38;;;;;;;24.57;51.63;99294.13;5108981;28;20055;-83
2022/08/29 10:43:59;;;;;;;7.63;3.35;;;;;;;24.63;51.12;99283.88;5110258;28;20047;-84
2022/08/29 10:46:51;;;;;;;5.93;3.10;;;;;;;24.64;50.73;99271.66;5106668;28;20473;-84
2022/08/29 10:49:34;;;;;;;4.47;2.85;;;;;;;24.87;50.68;99276.69;5102186;28;20075;-84
2022/08/29 10:52:06;;;;;;;10.65;3.70;;;;;;;24.97;50.24;99284.19;5110716;28;20048;-83
2022/08/29 10:54:48;;;;;;;5.47;3.30;;;;;;;24.83;51.00;99270.03;5110359;28;20109;-83
2022/08/29 10:57:26;;;;;;;7.20;3.13;;;;;;;25.02;49.12;99270.31;5110756;28;20044;-83
2022/08/29 11:00:03;;;;;;;6.45;2.85;;;;;;;25.23;48.68;99257.25;5107994;28;20051;-83
2022/08/29 11:02:36;;;;;;;9.32;3.08;;;;;;;25.39;49.21;99265.59;5109485;28;20055;-84
2022/08/29 11:05:09;;;;;;;10.60;2.90;;;;;;;25.39;48.33;99254.47;5109752;28;20050;-84
2022/08/29 11:07:42;;;;;;;8.18;3.10;;;;;;;25.36;48.10;99258.63;5110419;27;20453;-83
2022/08/29 11:10:16;;;;;;;5.40;3.05;;;;;;;25.60;49.22;99263.59;5110919;28;20047;-83
2022/08/29 11:12:48;;;;;;;9.60;2.97;;;;;;;25.64;46.99;99256.34;5109806;28;20544;-83
2022/08/29 11:15:20;;;;;;;8.88;3.55;;;;;;;25.66;47.56;99259.69;5111049;28;20047;-84
2022/08/29 11:17:53;;;;;;;5.10;3.10;;;;;;;25.75;48.63;99257.16;5108536;28;20043;-83
2022/08/29 11:20:26;;;;;;;6.82;2.70;;;;;;;25.68;47.59;99260.22;5110435;28;20544;-83
2022/08/29 11:22:59;;;;;;;10.77;3.38;;;;;;;25.68;48.19;99249.09;5109801;28;20067;-84
2022/08/29 11:25:28;;;;;;;6.30;3.50;;;;;;;25.80;47.65;99246.00;5110409;28;20127;-84
2022/08/29 11:28:07;;;;;;;7.10;2.88;;;;;;;26.00;47.22;99252.63;5102725;28;20384;-84
2022/08/29 11:30:43;;;;;;;7.80;3.08;;;;;;;26.10;46.31;99242.28;5108261;28;20437;-84
2022/08/29 11:33:20;;;;;;;7.55;3.78;;;;;;;26.15;45.76;99227.50;5109646;28;20100;-84
2022/08/29 11:35:57;;;;;;;6.22;3.47;;;;;;;26.21;46.21;99236.66;5110469;28;20056;-84
2022/08/29 11:38:52;;;;;;;6.70;3.38;;;;;;;26.44;45.27;99238.75;5110616;28;20123;-84
2022/08/29 11:41:28;;;;;;;4.88;3.28;;;;;;;26.59;45.04;99234.22;5107163;28;20107;-84
2022/08/29 11:44:04;;;;;;;6.78;3.50;;;;;;;26.72;45.19;99238.31;5108455;27;20052;-84
2022/08/29 11:46:43;;;;;;;6.00;3.00;;;;;;;26.85;44.84;99238.50;5108659;28;20406;-83